sensor_id;sensor_type;location;lat;lon;timestamp;pressure;altitude;pressure_sealevel;temperature;humidity
11314;BME280;5712;48.858;9.206;2023-03-19T00:02:19;97854.97;;;10.01;82.61
11314;BME280;5712;48.858;9.206;2023-03-19T00:04:46;97849.06;;;9.97;82.79
11314;BME280;5712;48.858;9.206;2023-03-19T00:07:13;97857.09;;;9.96;83.09
11314;BME280;5712;48.858;9.206;2023-03-19T00:09:40;97860.81;;;9.93;83.11
11314;BME280;5712;48.858;9.206;2023-03-19T00:12:08;97859.00;;;9.94;83.41
11314;BME280;5712;48.858;9.206;2023-03-19T00:14:35;97863.56;;;9.92;83.49
11314;BME280;5712;48.858;9.206;2023-03-19T00:17:03;97865.13;;;9.94;83.61
11314;BME280;5712;48.858;9.206;2023-03-19T00:19:29;97860.59;;;9.96;83.77
11314;BME280;5712;48.858;9.206;2023-03-19T00:21:56;97865.88;;;9.96;84.04
11314;BME280;5712;48.858;9.206;2023-03-19T00:24:22;97856.38;;;9.94;84.43
11314;BME280;5712;48.858;9.206;2023-03-19T00:26:49;97858.03;;;9.95;84.49
11314;BME280;5712;48.858;9.206;2023-03-19T00:29:16;97862.16;;;9.99;84.43
11314;BME280;5712;48.858;9.206;2023-03-19T00:31:43;97858.81;;;9.97;84.54
11314;BME280;5712;48.858;9.206;2023-03-19T00:34:11;97860.59;;;9.96;84.33
11314;BME280;5712;48.858;9.206;2023-03-19T00:36:38;97867.22;;;10.02;84.14
11314;BME280;5712;48.858;9.206;2023-03-19T00:39:05;97858.03;;;9.95;84.23
11314;BME280;5712;48.858;9.206;2023-03-19T00:41:31;97863.03;;;9.87;84.58
11314;BME280;5712;48.858;9.206;2023-03-19T00:43:58;97868.03;;;9.79;85.38
11314;BME280;5712;48.858;9.206;2023-03-19T00:46:25;97870.13;;;9.74;85.60
11314;BME280;5712;48.858;9.206;2023-03-19T00:48:52;97873.91;;;9.70;86.02
11314;BME280;5712;48.858;9.206;2023-03-19T00:51:22;97866.97;;;9.69;86.29
11314;BME280;5712;48.858;9.206;2023-03-19T00:53:49;97873.50;;;9.76;85.95
11314;BME280;5712;48.858;9.206;2023-03-19T00:56:16;97874.56;;;9.73;86.16
11314;BME280;5712;48.858;9.206;2023-03-19T00:58:43;97884.47;;;9.70;86.50
11314;BME280;5712;48.858;9.206;2023-03-19T01:01:12;97873.72;;;9.73;86.38
11314;BME280;5712;48.858;9.206;2023-03-19T01:03:39;97880.25;;;9.67;86.81
11314;BME280;5712;48.858;9.206;2023-03-19T01:06:06;97879.84;;;9.61;87.94
11314;BME280;5712;48.858;9.206;2023-03-19T01:08:34;97878.47;;;9.55;88.56
11314;BME280;5712;48.858;9.206;2023-03-19T01:11:05;97870.78;;;9.52;88.75
11314;BME280;5712;48.858;9.206;2023-03-19T01:13:32;97866.31;;;9.53;88.57
11314;BME280;5712;48.858;9.206;2023-03-19T01:15:59;97871.31;;;9.57;88.28
11314;BME280;5712;48.858;9.206;2023-03-19T01:18:26;97873.53;;;9.63;87.99
11314;BME280;5712;48.858;9.206;2023-03-19T01:20:54;97877.31;;;9.72;87.88
11314;BME280;5712;48.858;9.206;2023-03-19T01:23:21;97882.81;;;9.81;87.15
11314;BME280;5712;48.858;9.206;2023-03-19T01:25:49;97880.97;;;9.82;86.69
11314;BME280;5712;48.858;9.206;2023-03-19T01:28:15;97888.81;;;9.83;86.45
11314;BME280;5712;48.858;9.206;2023-03-19T01:30:42;97895.44;;;9.89;86.23
11314;BME280;5712;48.858;9.206;2023-03-19T01:33:09;97886.78;;;9.87;85.88
11314;BME280;5712;48.858;9.206;2023-03-19T01:35:36;97892.06;;;9.87;86.30
11314;BME280;5712;48.858;9.206;2023-03-19T01:38:03;97898.06;;;9.89;87.00
11314;BME280;5712;48.858;9.206;2023-03-19T01:40:30;97895.00;;;9.95;86.82
11314;BME280;5712;48.858;9.206;2023-03-19T01:43:12;97892.38;;;9.95;87.05
11314;BME280;5712;48.858;9.206;2023-03-19T01:45:40;97902.31;;;9.91;87.80
11314;BME280;5712;48.858;9.206;2023-03-19T01:48:15;97903.78;;;9.83;88.72
11314;BME280;5712;48.858;9.206;2023-03-19T01:50:44;97913.84;;;9.78;89.23
11314;BME280;5712;48.858;9.206;2023-03-19T01:53:12;97917.63;;;9.74;90.27
11314;BME280;5712;48.858;9.206;2023-03-19T01:55:40;97924.91;;;9.70;90.56
11314;BME280;5712;48.858;9.206;2023-03-19T01:58:09;97949.94;;;9.77;92.97
11314;BME280;5712;48.858;9.206;2023-03-19T02:00:36;97940.00;;;9.81;90.38
11314;BME280;5712;48.858;9.206;2023-03-19T02:03:04;97938.00;;;9.84;88.87
11314;BME280;5712;48.858;9.206;2023-03-19T02:05:32;97927.34;;;9.86;88.39
11314;BME280;5712;48.858;9.206;2023-03-19T02:08:02;97929.75;;;9.89;88.45
11314;BME280;5712;48.858;9.206;2023-03-19T02:10:30;97933.03;;;9.92;88.52
11314;BME280;5712;48.858;9.206;2023-03-19T02:12:57;97913.38;;;9.96;85.86
11314;BME280;5712;48.858;9.206;2023-03-19T02:15:26;97928.63;;;10.05;84.87
11314;BME280;5712;48.858;9.206;2023-03-19T02:17:53;97919.31;;;10.12;84.34
11314;BME280;5712;48.858;9.206;2023-03-19T02:20:24;97915.63;;;10.15;84.42
11314;BME280;5712;48.858;9.206;2023-03-19T02:22:59;97919.50;;;10.22;82.70
11314;BME280;5712;48.858;9.206;2023-03-19T02:25:34;97918.84;;;10.31;83.05
11314;BME280;5712;48.858;9.206;2023-03-19T02:28:06;97924.00;;;10.45;84.40
11314;BME280;5712;48.858;9.206;2023-03-19T02:30:34;97927.03;;;10.51;86.28
11314;BME280;5712;48.858;9.206;2023-03-19T02:33:01;97939.25;;;10.65;90.72
11314;BME280;5712;48.858;9.206;2023-03-19T02:35:30;97945.97;;;10.69;96.52
11314;BME280;5712;48.858;9.206;2023-03-19T02:37:57;97937.88;;;10.59;100.00
11314;BME280;5712;48.858;9.206;2023-03-19T02:40:27;97947.53;;;10.48;100.00
11314;BME280;5712;48.858;9.206;2023-03-19T02:42:55;97956.88;;;10.41;100.00
11314;BME280;5712;48.858;9.206;2023-03-19T02:45:27;97952.22;;;10.32;100.00
11314;BME280;5712;48.858;9.206;2023-03-19T02:47:54;97955.44;;;10.24;100.00
11314;BME280;5712;48.858;9.206;2023-03-19T02:50:20;97938.97;;;10.21;100.00
11314;BME280;5712;48.858;9.206;2023-03-19T02:52:49;97927.34;;;10.23;100.00
11314;BME280;5712;48.858;9.206;2023-03-19T02:55:16;97921.28;;;10.21;100.00
11314;BME280;5712;48.858;9.206;2023-03-19T02:57:44;97921.81;;;10.14;100.00
11314;BME280;5712;48.858;9.206;2023-03-19T03:00:11;97935.16;;;10.12;100.00
11314;BME280;5712;48.858;9.206;2023-03-19T03:02:39;97938.09;;;10.08;100.00
11314;BME280;5712;48.858;9.206;2023-03-19T03:05:06;97939.34;;;10.02;100.00
11314;BME280;5712;48.858;9.206;2023-03-19T03:07:33;97939.59;;;9.99;100.00
11314;BME280;5712;48.858;9.206;2023-03-19T03:10:00;97946.56;;;10.00;100.00
11314;BME280;5712;48.858;9.206;2023-03-19T03:12:26;97950.25;;;9.98;100.00
11314;BME280;5712;48.858;9.206;2023-03-19T03:14:53;97948.34;;;10.00;100.00
11314;BME280;5712;48.858;9.206;2023-03-19T03:17:19;97945.69;;;10.00;100.00
11314;BME280;5712;48.858;9.206;2023-03-19T03:19:47;97947.38;;;10.01;100.00
11314;BME280;5712;48.858;9.206;2023-03-19T03:22:14;97949.19;;;10.00;100.00
11314;BME280;5712;48.858;9.206;2023-03-19T03:24:40;97948.22;;;10.01;100.00
11314;BME280;5712;48.858;9.206;2023-03-19T03:27:07;97957.13;;;10.00;100.00
11314;BME280;5712;48.858;9.206;2023-03-19T03:29:33;97956.59;;;10.08;100.00
11314;BME280;5712;48.858;9.206;2023-03-19T03:32:00;97952.47;;;9.91;100.00
11314;BME280;5712;48.858;9.206;2023-03-19T03:34:27;97946.44;;;9.77;100.00
11314;BME280;5712;48.858;9.206;2023-03-19T03:36:55;97948.88;;;9.67;100.00
11314;BME280;5712;48.858;9.206;2023-03-19T03:39:24;97948.47;;;9.61;100.00
11314;BME280;5712;48.858;9.206;2023-03-19T03:41:50;97950.34;;;9.59;100.00
11314;BME280;5712;48.858;9.206;2023-03-19T03:44:17;97943.59;;;9.55;100.00
11314;BME280;5712;48.858;9.206;2023-03-19T03:46:43;97950.75;;;9.53;100.00
11314;BME280;5712;48.858;9.206;2023-03-19T03:49:10;97952.25;;;9.57;100.00
11314;BME280;5712;48.858;9.206;2023-03-19T03:51:37;97948.66;;;9.45;100.00
11314;BME280;5712;48.858;9.206;2023-03-19T03:54:05;97957.06;;;9.38;100.00
11314;BME280;5712;48.858;9.206;2023-03-19T03:56:32;97953.06;;;9.45;100.00
11314;BME280;5712;48.858;9.206;2023-03-19T03:58:58;97957.81;;;9.40;100.00
11314;BME280;5712;48.858;9.206;2023-03-19T04:01:25;97962.13;;;9.28;100.00
11314;BME280;5712;48.858;9.206;2023-03-19T04:03:52;97966.03;;;9.23;100.00
11314;BME280;5712;48.858;9.206;2023-03-19T04:06:21;97962.63;;;9.21;100.00
11314;BME280;5712;48.858;9.206;2023-03-19T04:08:48;97962.63;;;9.21;100.00
11314;BME280;5712;48.858;9.206;2023-03-19T04:11:16;97962.06;;;9.16;100.00
11314;BME280;5712;48.858;9.206;2023-03-19T04:13:43;97973.56;;;9.15;100.00
11314;BME280;5712;48.858;9.206;2023-03-19T04:16:09;97973.47;;;9.16;100.00
11314;BME280;5712;48.858;9.206;2023-03-19T04:18:37;97969.56;;;9.22;100.00
11314;BME280;5712;48.858;9.206;2023-03-19T04:21:04;97981.63;;;9.26;100.00
11314;BME280;5712;48.858;9.206;2023-03-19T04:23:32;97974.25;;;9.31;100.00
11314;BME280;5712;48.858;9.206;2023-03-19T04:25:59;97984.81;;;9.31;100.00
11314;BME280;5712;48.858;9.206;2023-03-19T04:28:27;97982.34;;;9.28;100.00
11314;BME280;5712;48.858;9.206;2023-03-19T04:30:58;97983.13;;;9.30;100.00
11314;BME280;5712;48.858;9.206;2023-03-19T04:33:24;97983.13;;;9.30;100.00
11314;BME280;5712;48.858;9.206;2023-03-19T04:35:51;97982.16;;;9.31;100.00
11314;BME280;5712;48.858;9.206;2023-03-19T04:38:18;97985.53;;;9.33;100.00
11314;BME280;5712;48.858;9.206;2023-03-19T04:40:45;97990.72;;;9.34;100.00
11314;BME280;5712;48.858;9.206;2023-03-19T04:43:12;97988.09;;;9.34;100.00
11314;BME280;5712;48.858;9.206;2023-03-19T04:45:41;97986.41;;;9.33;100.00
11314;BME280;5712;48.858;9.206;2023-03-19T04:48:10;97984.72;;;9.32;100.00
11314;BME280;5712;48.858;9.206;2023-03-19T04:50:37;97992.63;;;9.32;100.00
11314;BME280;5712;48.858;9.206;2023-03-19T04:53:04;97993.53;;;9.31;100.00
11314;BME280;5712;48.858;9.206;2023-03-19T04:55:32;97993.44;;;9.33;100.00
11314;BME280;5712;48.858;9.206;2023-03-19T04:58:02;97999.69;;;9.32;100.00
11314;BME280;5712;48.858;9.206;2023-03-19T05:00:29;98003.28;;;9.31;100.00
11314;BME280;5712;48.858;9.206;2023-03-19T05:02:57;97996.00;;;9.34;100.00
11314;BME280;5712;48.858;9.206;2023-03-19T05:05:23;98006.44;;;9.36;100.00
11314;BME280;5712;48.858;9.206;2023-03-19T05:07:50;98016.78;;;9.39;100.00
11314;BME280;5712;48.858;9.206;2023-03-19T05:10:17;98008.13;;;9.37;100.00
11314;BME280;5712;48.858;9.206;2023-03-19T05:12:43;98007.19;;;9.38;100.00
11314;BME280;5712;48.858;9.206;2023-03-19T05:15:10;98009.81;;;9.38;100.00
11314;BME280;5712;48.858;9.206;2023-03-19T05:17:37;98016.13;;;9.35;100.00
11314;BME280;5712;48.858;9.206;2023-03-19T05:20:06;98020.56;;;9.35;100.00
11314;BME280;5712;48.858;9.206;2023-03-19T05:22:33;98018.13;;;9.32;100.00
11314;BME280;5712;48.858;9.206;2023-03-19T05:25:00;98019.09;;;9.31;100.00
11314;BME280;5712;48.858;9.206;2023-03-19T05:27:26;98019.28;;;9.28;100.00
11314;BME280;5712;48.858;9.206;2023-03-19T05:29:53;98014.13;;;9.26;100.00
11314;BME280;5712;48.858;9.206;2023-03-19T05:32:19;98020.72;;;9.19;100.00
11314;BME280;5712;48.858;9.206;2023-03-19T05:34:46;98018.38;;;9.15;100.00
11314;BME280;5712;48.858;9.206;2023-03-19T05:37:14;98014.38;;;9.09;100.00
11314;BME280;5712;48.858;9.206;2023-03-19T05:39:41;98025.00;;;9.08;100.00
11314;BME280;5712;48.858;9.206;2023-03-19T05:42:08;98023.25;;;9.08;100.00
11314;BME280;5712;48.858;9.206;2023-03-19T05:44:34;98016.38;;;9.06;100.00
11314;BME280;5712;48.858;9.206;2023-03-19T05:47:01;98023.41;;;9.05;100.00
11314;BME280;5712;48.858;9.206;2023-03-19T05:49:27;98018.16;;;9.05;100.00
11314;BME280;5712;48.858;9.206;2023-03-19T05:51:54;98027.88;;;9.05;100.00
11314;BME280;5712;48.858;9.206;2023-03-19T05:54:22;98036.50;;;9.07;100.00
11314;BME280;5712;48.858;9.206;2023-03-19T05:56:48;98038.19;;;9.08;100.00
11314;BME280;5712;48.858;9.206;2023-03-19T05:59:15;98040.75;;;9.09;100.00
11314;BME280;5712;48.858;9.206;2023-03-19T06:01:42;98032.75;;;9.11;100.00
11314;BME280;5712;48.858;9.206;2023-03-19T06:04:09;98035.63;;;9.20;100.00
11314;BME280;5712;48.858;9.206;2023-03-19T06:06:35;98035.63;;;9.20;100.00
11314;BME280;5712;48.858;9.206;2023-03-19T06:09:02;98038.03;;;9.23;100.00
11314;BME280;5712;48.858;9.206;2023-03-19T06:11:30;98050.09;;;9.27;100.00
11314;BME280;5712;48.858;9.206;2023-03-19T06:13:57;98046.59;;;9.27;100.00
11314;BME280;5712;48.858;9.206;2023-03-19T06:16:23;98055.25;;;9.29;100.00
11314;BME280;5712;48.858;9.206;2023-03-19T06:18:50;98048.00;;;9.32;100.00
11314;BME280;5712;48.858;9.206;2023-03-19T06:21:16;98051.47;;;9.33;100.00
11314;BME280;5712;48.858;9.206;2023-03-19T06:23:42;98050.13;;;9.40;100.00
11314;BME280;5712;48.858;9.206;2023-03-19T06:26:09;98050.66;;;9.45;100.00
11314;BME280;5712;48.858;9.206;2023-03-19T06:28:37;98045.94;;;9.50;100.00
11314;BME280;5712;48.858;9.206;2023-03-19T06:31:03;98048.50;;;9.51;100.00
11314;BME280;5712;48.858;9.206;2023-03-19T06:33:30;98046.66;;;9.52;100.00
11314;BME280;5712;48.858;9.206;2023-03-19T06:35:58;98042.81;;;9.57;100.00
11314;BME280;5712;48.858;9.206;2023-03-19T06:38:24;98041.53;;;9.63;100.00
11314;BME280;5712;48.858;9.206;2023-03-19T06:40:51;98046.22;;;9.72;100.00
11314;BME280;5712;48.858;9.206;2023-03-19T06:43:17;98047.78;;;9.74;100.00
11314;BME280;5712;48.858;9.206;2023-03-19T06:45:45;98045.38;;;9.84;100.00
11314;BME280;5712;48.858;9.206;2023-03-19T06:48:12;98049.81;;;9.83;100.00
11314;BME280;5712;48.858;9.206;2023-03-19T06:50:38;98046.94;;;9.86;100.00
11314;BME280;5712;48.858;9.206;2023-03-19T06:53:05;98045.16;;;9.87;100.00
11314;BME280;5712;48.858;9.206;2023-03-19T06:55:32;98042.00;;;9.94;100.00
11314;BME280;5712;48.858;9.206;2023-03-19T06:57:58;98050.75;;;9.95;100.00
11314;BME280;5712;48.858;9.206;2023-03-19T07:00:25;98047.94;;;9.98;100.00
11314;BME280;5712;48.858;9.206;2023-03-19T07:02:53;98051.97;;;10.03;100.00
11314;BME280;5712;48.858;9.206;2023-03-19T07:05:20;98049.78;;;10.10;100.00
11314;BME280;5712;48.858;9.206;2023-03-19T07:07:46;98055.59;;;10.15;100.00
11314;BME280;5712;48.858;9.206;2023-03-19T07:10:13;98062.13;;;10.22;100.00
11314;BME280;5712;48.858;9.206;2023-03-19T07:12:39;98059.78;;;10.30;100.00
11314;BME280;5712;48.858;9.206;2023-03-19T07:15:06;98061.28;;;10.34;100.00
11314;BME280;5712;48.858;9.206;2023-03-19T07:17:33;98051.34;;;10.37;100.00
11314;BME280;5712;48.858;9.206;2023-03-19T07:20:01;98057.25;;;10.41;100.00
11314;BME280;5712;48.858;9.206;2023-03-19T07:22:27;98065.81;;;10.44;100.00
11314;BME280;5712;48.858;9.206;2023-03-19T07:24:54;98054.91;;;10.49;100.00
11314;BME280;5712;48.858;9.206;2023-03-19T07:27:20;98061.47;;;10.56;100.00
11314;BME280;5712;48.858;9.206;2023-03-19T07:29:47;98066.31;;;10.62;100.00
11314;BME280;5712;48.858;9.206;2023-03-19T07:32:14;98063.75;;;10.73;100.00
11314;BME280;5712;48.858;9.206;2023-03-19T07:34:40;98075.06;;;10.75;100.00
11314;BME280;5712;48.858;9.206;2023-03-19T07:37:08;98068.63;;;10.79;100.00
11314;BME280;5712;48.858;9.206;2023-03-19T07:39:35;98077.06;;;10.84;100.00
11314;BME280;5712;48.858;9.206;2023-03-19T07:42:01;98072.19;;;10.90;100.00
11314;BME280;5712;48.858;9.206;2023-03-19T07:44:28;98069.22;;;10.95;100.00
11314;BME280;5712;48.858;9.206;2023-03-19T07:46:55;98067.72;;;11.03;100.00
11314;BME280;5712;48.858;9.206;2023-03-19T07:49:21;98068.88;;;11.12;100.00
11314;BME280;5712;48.858;9.206;2023-03-19T07:51:48;98069.59;;;11.14;100.00
11314;BME280;5712;48.858;9.206;2023-03-19T07:54:16;98070.66;;;11.11;100.00
11314;BME280;5712;48.858;9.206;2023-03-19T07:56:43;98069.78;;;11.11;100.00
11314;BME280;5712;48.858;9.206;2023-03-19T07:59:09;98072.97;;;11.16;100.00
11314;BME280;5712;48.858;9.206;2023-03-19T08:01:36;98071.69;;;11.21;100.00
11314;BME280;5712;48.858;9.206;2023-03-19T08:04:03;98071.88;;;11.31;100.00
11314;BME280;5712;48.858;9.206;2023-03-19T08:06:29;98071.41;;;11.37;100.00
11314;BME280;5712;48.858;9.206;2023-03-19T08:08:56;98072.66;;;11.44;100.00
11314;BME280;5712;48.858;9.206;2023-03-19T08:11:23;98070.28;;;11.52;100.00
11314;BME280;5712;48.858;9.206;2023-03-19T08:13:50;98079.13;;;11.63;100.00
11314;BME280;5712;48.858;9.206;2023-03-19T08:16:17;98068.72;;;11.73;100.00
11314;BME280;5712;48.858;9.206;2023-03-19T08:18:43;98068.28;;;11.79;100.00
11314;BME280;5712;48.858;9.206;2023-03-19T08:21:10;98070.94;;;11.90;100.00
11314;BME280;5712;48.858;9.206;2023-03-19T08:23:36;98067.97;;;11.94;100.00
11314;BME280;5712;48.858;9.206;2023-03-19T08:26:03;98068.56;;;11.98;100.00
11314;BME280;5712;48.858;9.206;2023-03-19T08:28:31;98070.25;;;11.99;100.00
11314;BME280;5712;48.858;9.206;2023-03-19T08:30:57;98064.72;;;12.02;100.00
11314;BME280;5712;48.858;9.206;2023-03-19T08:33:24;98073.16;;;12.07;100.00
11314;BME280;5712;48.858;9.206;2023-03-19T08:35:50;98067.84;;;12.07;100.00
11314;BME280;5712;48.858;9.206;2023-03-19T08:38:17;98070.16;;;12.11;100.00
11314;BME280;5712;48.858;9.206;2023-03-19T08:40:44;98073.91;;;12.20;100.00
11314;BME280;5712;48.858;9.206;2023-03-19T08:43:10;98071.63;;;12.15;100.00
11314;BME280;5712;48.858;9.206;2023-03-19T08:45:38;98073.28;;;12.16;100.00
11314;BME280;5712;48.858;9.206;2023-03-19T08:48:05;98076.56;;;12.20;100.00
11314;BME280;5712;48.858;9.206;2023-03-19T08:50:31;98069.94;;;12.14;98.83
11314;BME280;5712;48.858;9.206;2023-03-19T08:52:58;98074.38;;;12.14;98.31
11314;BME280;5712;48.858;9.206;2023-03-19T08:55:24;98073.53;;;12.24;98.22
11314;BME280;5712;48.858;9.206;2023-03-19T08:57:51;98082.81;;;12.19;99.23
11314;BME280;5712;48.858;9.206;2023-03-19T09:00:18;98091.47;;;12.21;100.00
11314;BME280;5712;48.858;9.206;2023-03-19T09:02:46;98097.78;;;12.31;99.88
11314;BME280;5712;48.858;9.206;2023-03-19T09:05:12;98095.03;;;12.43;99.22
11314;BME280;5712;48.858;9.206;2023-03-19T09:07:39;98094.09;;;12.66;97.67
11314;BME280;5712;48.858;9.206;2023-03-19T09:10:06;98080.00;;;12.77;94.19
11314;BME280;5712;48.858;9.206;2023-03-19T09:12:32;98084.84;;;12.83;93.73
11314;BME280;5712;48.858;9.206;2023-03-19T09:14:59;98088.78;;;12.88;94.55
11314;BME280;5712;48.858;9.206;2023-03-19T09:17:26;98085.31;;;12.99;93.79
11314;BME280;5712;48.858;9.206;2023-03-19T09:19:54;98089.91;;;13.08;92.50
11314;BME280;5712;48.858;9.206;2023-03-19T09:22:20;98080.47;;;13.26;91.76
11314;BME280;5712;48.858;9.206;2023-03-19T09:24:46;98084.41;;;13.42;90.62
11314;BME280;5712;48.858;9.206;2023-03-19T09:27:13;98089.03;;;13.61;91.19
11314;BME280;5712;48.858;9.206;2023-03-19T09:29:39;98081.03;;;13.72;89.19
11314;BME280;5712;48.858;9.206;2023-03-19T09:32:06;98083.03;;;13.90;91.17
11314;BME280;5712;48.858;9.206;2023-03-19T09:34:33;98075.53;;;13.95;89.16
11314;BME280;5712;48.858;9.206;2023-03-19T09:37:01;98068.16;;;13.99;85.96
11314;BME280;5712;48.858;9.206;2023-03-19T09:39:27;98068.66;;;13.93;85.03
11314;BME280;5712;48.858;9.206;2023-03-19T09:42:02;98059.72;;;13.94;82.93
11314;BME280;5712;48.858;9.206;2023-03-19T09:44:33;98059.28;;;13.78;82.97
11314;BME280;5712;48.858;9.206;2023-03-19T09:47:11;98061.72;;;13.81;84.17
11314;BME280;5712;48.858;9.206;2023-03-19T09:49:45;98072.59;;;13.67;84.11
11314;BME280;5712;48.858;9.206;2023-03-19T09:52:23;98069.41;;;13.52;84.72
11314;BME280;5712;48.858;9.206;2023-03-19T09:54:55;98078.22;;;13.84;86.71
11314;BME280;5712;48.858;9.206;2023-03-19T09:57:22;98061.56;;;14.03;83.50
11314;BME280;5712;48.858;9.206;2023-03-19T09:59:49;98064.47;;;14.31;84.00
11314;BME280;5712;48.858;9.206;2023-03-19T10:02:33;98044.44;;;14.48;80.32
11314;BME280;5712;48.858;9.206;2023-03-19T10:05:11;98051.75;;;14.65;80.28
11314;BME280;5712;48.858;9.206;2023-03-19T10:07:57;98056.34;;;14.83;80.94
11314;BME280;5712;48.858;9.206;2023-03-19T10:10:37;98037.34;;;14.97;77.89
11314;BME280;5712;48.858;9.206;2023-03-19T10:13:19;98020.53;;;14.97;74.84
11314;BME280;5712;48.858;9.206;2023-03-19T10:15:52;98012.66;;;14.86;71.76
11314;BME280;5712;48.858;9.206;2023-03-19T10:18:22;98034.97;;;14.94;77.59
11314;BME280;5712;48.858;9.206;2023-03-19T10:20:54;98016.94;;;15.07;75.08
11314;BME280;5712;48.858;9.206;2023-03-19T10:23:37;98019.75;;;15.25;74.19
11314;BME280;5712;48.858;9.206;2023-03-19T10:26:09;98011.41;;;15.39;72.70
11314;BME280;5712;48.858;9.206;2023-03-19T10:28:37;98018.44;;;15.49;72.22
11314;BME280;5712;48.858;9.206;2023-03-19T10:31:19;98027.25;;;15.59;73.93
11314;BME280;5712;48.858;9.206;2023-03-19T10:33:52;98010.88;;;15.73;69.69
11314;BME280;5712;48.858;9.206;2023-03-19T10:36:26;97989.25;;;15.76;67.63
11314;BME280;5712;48.858;9.206;2023-03-19T10:38:54;97987.88;;;15.82;66.63
11314;BME280;5712;48.858;9.206;2023-03-19T10:41:28;97991.22;;;15.84;69.33
11314;BME280;5712;48.858;9.206;2023-03-19T10:44:05;97981.25;;;15.86;66.39
11314;BME280;5712;48.858;9.206;2023-03-19T10:46:38;97968.50;;;15.61;64.59
11314;BME280;5712;48.858;9.206;2023-03-19T10:49:10;97971.31;;;15.50;65.25
11314;BME280;5712;48.858;9.206;2023-03-19T10:51:37;97967.13;;;15.57;65.20
11314;BME280;5712;48.858;9.206;2023-03-19T10:54:17;97960.09;;;15.65;64.65
11314;BME280;5712;48.858;9.206;2023-03-19T10:56:46;97976.22;;;15.73;66.53
11314;BME280;5712;48.858;9.206;2023-03-19T10:59:20;97970.72;;;15.94;66.21
11314;BME280;5712;48.858;9.206;2023-03-19T11:01:47;97979.97;;;15.99;68.19
11314;BME280;5712;48.858;9.206;2023-03-19T11:04:17;97945.19;;;16.01;63.36
11314;BME280;5712;48.858;9.206;2023-03-19T11:06:47;97940.44;;;15.95;62.56
11314;BME280;5712;48.858;9.206;2023-03-19T11:09:23;97940.13;;;15.98;62.54
11314;BME280;5712;48.858;9.206;2023-03-19T11:11:53;97922.13;;;16.18;59.85
11314;BME280;5712;48.858;9.206;2023-03-19T11:14:26;97933.91;;;16.16;59.42
11314;BME280;5712;48.858;9.206;2023-03-19T11:17:02;97936.44;;;16.17;60.19
11314;BME280;5712;48.858;9.206;2023-03-19T11:19:32;97939.22;;;16.25;60.52
11314;BME280;5712;48.858;9.206;2023-03-19T11:22:08;97909.13;;;16.42;57.96
11314;BME280;5712;48.858;9.206;2023-03-19T11:24:38;97896.16;;;16.47;55.18
11314;BME280;5712;48.858;9.206;2023-03-19T11:27:06;97884.13;;;16.43;53.82
11314;BME280;5712;48.858;9.206;2023-03-19T11:29:34;97886.09;;;16.41;53.30
11314;BME280;5712;48.858;9.206;2023-03-19T11:32:11;97887.81;;;16.42;53.59
11314;BME280;5712;48.858;9.206;2023-03-19T11:34:51;97885.97;;;16.33;53.72
11314;BME280;5712;48.858;9.206;2023-03-19T11:37:22;97880.34;;;16.36;53.38
11314;BME280;5712;48.858;9.206;2023-03-19T11:39:58;97873.75;;;16.40;52.87
11314;BME280;5712;48.858;9.206;2023-03-19T11:42:43;97877.63;;;16.55;52.94
11314;BME280;5712;48.858;9.206;2023-03-19T11:45:23;97873.84;;;16.75;52.65
11314;BME280;5712;48.858;9.206;2023-03-19T11:48:05;97864.53;;;16.79;51.94
11314;BME280;5712;48.858;9.206;2023-03-19T11:50:44;97865.47;;;16.88;51.88
11314;BME280;5712;48.858;9.206;2023-03-19T11:53:22;97867.53;;;17.11;52.60
11314;BME280;5712;48.858;9.206;2023-03-19T11:55:58;97854.47;;;17.26;51.79
11314;BME280;5712;48.858;9.206;2023-03-19T11:58:55;97851.28;;;17.22;50.94
11314;BME280;5712;48.858;9.206;2023-03-19T12:01:37;97848.19;;;17.35;50.89
11314;BME280;5712;48.858;9.206;2023-03-19T12:04:20;97855.25;;;17.18;51.02
11314;BME280;5712;48.858;9.206;2023-03-19T12:06:59;97853.78;;;17.06;52.00
11314;BME280;5712;48.858;9.206;2023-03-19T12:09:33;97855.34;;;16.91;52.02
11314;BME280;5712;48.858;9.206;2023-03-19T12:12:09;97842.34;;;16.79;51.11
11314;BME280;5712;48.858;9.206;2023-03-19T12:14:49;97855.53;;;16.80;51.85
11314;BME280;5712;48.858;9.206;2023-03-19T12:17:30;97868.81;;;17.07;53.29
11314;BME280;5712;48.858;9.206;2023-03-19T12:20:30;97848.44;;;17.06;51.05
11314;BME280;5712;48.858;9.206;2023-03-19T12:23:09;97845.16;;;17.12;51.09
11314;BME280;5712;48.858;9.206;2023-03-19T12:25:50;97828.91;;;17.23;49.88
11314;BME280;5712;48.858;9.206;2023-03-19T12:28:25;97837.97;;;17.30;50.26
11314;BME280;5712;48.858;9.206;2023-03-19T12:33:48;97843.88;;;17.16;50.67
11314;BME280;5712;48.858;9.206;2023-03-19T12:36:20;97850.50;;;17.12;51.60
11314;BME280;5712;48.858;9.206;2023-03-19T12:38:52;97844.09;;;17.23;50.83
11314;BME280;5712;48.858;9.206;2023-03-19T12:41:22;97844.84;;;17.33;50.61
11314;BME280;5712;48.858;9.206;2023-03-19T12:43:55;97848.06;;;17.36;50.55
11314;BME280;5712;48.858;9.206;2023-03-19T12:46:27;97842.72;;;17.36;50.42
11314;BME280;5712;48.858;9.206;2023-03-19T12:48:58;97850.06;;;16.99;51.05
11314;BME280;5712;48.858;9.206;2023-03-19T12:51:31;97877.75;;;16.54;54.35
11314;BME280;5712;48.858;9.206;2023-03-19T12:54:02;97888.72;;;16.14;55.49
11314;BME280;5712;48.858;9.206;2023-03-19T12:56:34;97915.19;;;15.80;58.27
11314;BME280;5712;48.858;9.206;2023-03-19T12:59:10;97908.22;;;15.69;58.29
11314;BME280;5712;48.858;9.206;2023-03-19T13:01:42;97905.84;;;15.47;58.70
11314;BME280;5712;48.858;9.206;2023-03-19T13:04:12;97912.88;;;15.39;59.33
11314;BME280;5712;48.858;9.206;2023-03-19T13:06:43;97919.13;;;15.19;59.59
11314;BME280;5712;48.858;9.206;2023-03-19T13:09:19;97926.56;;;15.06;61.38
11314;BME280;5712;48.858;9.206;2023-03-19T13:11:54;97939.25;;;14.74;62.32
11314;BME280;5712;48.858;9.206;2023-03-19T13:14:30;97939.34;;;14.63;62.93
11314;BME280;5712;48.858;9.206;2023-03-19T13:17:01;97986.03;;;14.46;69.05
11314;BME280;5712;48.858;9.206;2023-03-19T13:19:33;97996.88;;;14.13;71.93
11314;BME280;5712;48.858;9.206;2023-03-19T13:22:12;98011.16;;;13.71;75.22
11314;BME280;5712;48.858;9.206;2023-03-19T13:24:40;98022.53;;;13.31;78.60